createdAt,value
2018-04-12T00:00:47.084Z,10.10
2018-04-12T00:03:14.685Z,11.60
2018-04-12T00:05:41.656Z,10.17
2018-04-12T00:08:08.518Z,11.00
2018-04-12T00:10:35.440Z,10.60
2018-04-12T00:13:02.293Z,10.90
2018-04-12T00:15:29.214Z,12.37
2018-04-12T00:17:56.185Z,13.40
2018-04-12T00:20:23.050Z,11.87
2018-04-12T00:22:49.965Z,12.07
2018-04-12T00:25:16.953Z,12.70
2018-04-12T00:27:44.677Z,11.33
2018-04-12T00:30:11.597Z,12.80
2018-04-12T00:32:38.515Z,14.17
2018-04-12T00:35:05.437Z,13.33
2018-04-12T00:37:32.404Z,14.97
2018-04-12T00:39:59.265Z,12.73
2018-04-12T00:42:26.225Z,15.67
2018-04-12T00:44:53.149Z,15.00
2018-04-12T00:47:20.739Z,14.30
2018-04-12T00:49:47.665Z,14.97
2018-04-12T00:52:14.585Z,14.47
2018-04-12T00:54:41.587Z,15.00
2018-04-12T00:57:08.445Z,16.40
2018-04-12T00:59:35.364Z,15.43
2018-04-12T01:02:02.233Z,14.70
2018-04-12T01:04:29.165Z,15.70
2018-04-12T01:06:56.088Z,15.30
2018-04-12T01:09:22.953Z,14.80
2018-04-12T01:11:49.897Z,17.00
2018-04-12T01:14:16.813Z,16.87
2018-04-12T01:16:43.740Z,15.60
2018-04-12T01:19:10.705Z,17.77
2018-04-12T01:21:37.565Z,18.63
2018-04-12T01:24:04.503Z,19.57
2018-04-12T01:26:31.436Z,19.17
2018-04-12T01:28:59.089Z,20.83
2018-04-12T01:31:25.957Z,20.93
2018-04-12T01:33:52.897Z,20.97
2018-04-12T01:36:20.495Z,21.80
2018-04-12T01:38:47.349Z,22.50
2018-04-12T01:41:14.273Z,21.50
2018-04-12T01:43:41.197Z,21.23
2018-04-12T01:46:08.061Z,21.53
2018-04-12T01:48:34.979Z,23.70
2018-04-12T01:51:01.912Z,23.80
2018-04-12T01:53:28.845Z,25.10
2018-04-12T01:55:55.707Z,24.60
2018-04-12T01:58:22.574Z,24.83
2018-04-12T02:00:49.595Z,22.77
2018-04-12T02:03:16.457Z,25.83
2018-04-12T02:05:43.391Z,25.37
2018-04-12T02:08:10.252Z,24.87
2018-04-12T02:10:37.178Z,27.00
2018-04-12T02:13:04.160Z,28.70
2018-04-12T02:15:31.092Z,29.43
2018-04-12T02:17:58.004Z,26.97
2018-04-12T02:20:24.866Z,27.83
2018-04-12T02:22:51.805Z,29.23
2018-04-12T02:25:18.729Z,29.60
2018-04-12T02:27:45.699Z,28.60
2018-04-12T02:30:13.414Z,33.67
2018-04-12T02:32:40.283Z,33.00
2018-04-12T02:35:07.211Z,31.43
2018-04-12T02:37:34.073Z,32.50
2018-04-12T02:40:00.983Z,33.67
2018-04-12T02:42:27.853Z,33.30
2018-04-12T02:44:55.324Z,34.37
2018-04-12T02:47:22.240Z,32.70
2018-04-12T02:49:49.093Z,34.00
2018-04-12T02:52:16.010Z,33.13
2018-04-12T02:54:42.869Z,34.33
2018-04-12T02:57:09.721Z,34.67
2018-04-12T02:59:36.630Z,37.67
2018-04-12T03:02:03.554Z,36.47
2018-04-12T03:04:30.530Z,37.10
2018-04-12T03:06:57.380Z,38.47
2018-04-12T03:09:24.317Z,38.80
2018-04-12T03:11:51.233Z,37.13
2018-04-12T03:14:18.083Z,42.23
2018-04-12T03:16:44.992Z,41.80
2018-04-12T03:19:11.847Z,38.57
2018-04-12T03:21:38.761Z,41.50
2018-04-12T03:24:05.697Z,40.53
2018-04-12T03:26:32.604Z,42.60
2018-04-12T03:28:59.459Z,44.37
2018-04-12T03:31:27.305Z,42.93
2018-04-12T03:33:54.194Z,43.77
2018-04-12T03:36:21.043Z,42.50
2018-04-12T03:38:47.962Z,45.10
2018-04-12T03:41:15.562Z,43.97
2018-04-12T03:43:42.479Z,41.50
2018-04-12T03:46:09.402Z,44.00
2018-04-12T03:48:36.387Z,45.20
2018-04-12T03:51:03.289Z,46.73
2018-04-12T03:53:30.199Z,44.17
2018-04-12T03:55:57.137Z,44.03
2018-04-12T03:58:24.052Z,43.23
2018-04-12T04:00:50.969Z,47.27
2018-04-12T04:03:17.823Z,46.17
2018-04-12T04:05:44.744Z,43.20
2018-04-12T04:08:11.602Z,43.23
2018-04-12T04:10:38.527Z,45.67
2018-04-12T04:13:05.453Z,43.33
2018-04-12T04:15:45.384Z,44.53
2018-04-12T04:18:24.522Z,44.20
2018-04-12T04:21:10.482Z,44.40
2018-04-12T04:23:37.478Z,43.23
2018-04-12T04:26:06.852Z,47.57
2018-04-12T04:31:18.948Z,47.67
2018-04-12T04:33:45.868Z,48.73
2018-04-12T04:36:12.815Z,51.03
2018-04-12T04:38:39.685Z,46.60
2018-04-12T04:41:06.615Z,46.97
2018-04-12T04:43:33.481Z,46.43
2018-04-12T04:46:01.005Z,48.77
2018-04-12T04:48:27.865Z,44.30
2018-04-12T04:50:54.847Z,46.13
2018-04-12T04:53:21.703Z,43.43
2018-04-12T04:55:48.567Z,49.03
2018-04-12T04:58:15.490Z,47.63
2018-04-12T05:00:42.382Z,48.87
2018-04-12T05:03:09.374Z,49.33
2018-04-12T05:05:36.322Z,47.53
2018-04-12T05:08:03.310Z,45.57
2018-04-12T05:10:30.225Z,46.43
2018-04-12T05:12:57.091Z,53.10
2018-04-12T05:15:24.034Z,46.47
2018-04-12T05:17:50.956Z,44.63
2018-04-12T05:20:17.806Z,45.13
2018-04-12T05:22:44.791Z,46.37
2018-04-12T05:25:11.650Z,45.17
2018-04-12T05:27:39.624Z,44.90
2018-04-12T05:30:06.915Z,49.67
2018-04-12T05:32:33.856Z,46.00
2018-04-12T05:35:01.955Z,47.80
2018-04-12T05:37:30.853Z,43.20
2018-04-12T05:39:58.893Z,47.87
2018-04-12T05:42:35.183Z,47.70
2018-04-12T05:45:04.073Z,46.10
2018-04-12T05:47:31.026Z,47.00
2018-04-12T05:49:57.972Z,43.43
2018-04-12T05:52:24.844Z,44.03
2018-04-12T05:54:51.777Z,46.03
2018-04-12T05:57:18.710Z,44.50
2018-04-12T05:59:45.587Z,44.33
2018-04-12T06:02:12.448Z,46.40
2018-04-12T06:04:39.382Z,42.17
2018-04-12T06:07:06.252Z,42.63
2018-04-12T06:09:33.110Z,44.77
2018-04-12T06:12:00.041Z,44.23
2018-04-12T06:14:27.014Z,40.70
2018-04-12T06:16:53.905Z,43.33
2018-04-12T06:19:20.838Z,39.67
2018-04-12T06:21:47.689Z,39.33
2018-04-12T06:24:14.622Z,41.63
2018-04-12T06:26:41.545Z,43.30
2018-04-12T06:29:08.458Z,39.10
2018-04-12T06:31:36.178Z,40.93
2018-04-12T06:34:03.127Z,39.97
2018-04-12T06:36:30.032Z,37.00
2018-04-12T06:38:56.976Z,38.77
2018-04-12T06:41:23.850Z,36.50
2018-04-12T06:43:50.919Z,36.30
2018-04-12T06:46:17.845Z,32.03
2018-04-12T06:48:44.771Z,33.20
2018-04-12T06:51:11.726Z,34.10
2018-04-12T06:53:38.581Z,34.33
2018-04-12T06:56:05.541Z,33.97
2018-04-12T06:58:32.468Z,30.67
2018-04-12T07:00:59.337Z,31.10
2018-04-12T07:03:26.219Z,31.30
2018-04-12T07:05:53.882Z,32.23
2018-04-12T07:08:20.789Z,30.10
2018-04-12T07:10:47.721Z,30.77
2018-04-12T07:13:14.657Z,29.87
2018-04-12T07:15:41.512Z,28.10
2018-04-12T07:18:08.515Z,28.40
2018-04-12T07:20:36.175Z,27.47
2018-04-12T07:23:03.799Z,26.00
2018-04-12T07:25:30.801Z,23.00
2018-04-12T07:27:57.648Z,22.77
2018-04-12T07:30:24.556Z,21.60
2018-04-12T07:32:51.482Z,21.40
2018-04-12T07:35:18.346Z,21.33
2018-04-12T07:37:45.311Z,19.33
2018-04-12T07:40:12.294Z,18.40
2018-04-12T07:42:39.149Z,19.50
2018-04-12T07:45:06.009Z,20.43
2018-04-12T07:47:32.923Z,19.30
2018-04-12T07:49:59.785Z,16.80
2018-04-12T07:52:26.700Z,14.53
2018-04-12T07:54:53.616Z,12.00
2018-04-12T07:57:20.707Z,12.77
2018-04-12T07:59:47.626Z,12.23
2018-04-12T08:02:15.216Z,12.60
2018-04-12T08:04:42.129Z,12.70
2018-04-12T08:07:09.110Z,12.37
2018-04-12T08:09:35.958Z,11.40
2018-04-12T08:12:02.900Z,11.63
2018-04-12T08:14:29.810Z,11.87
2018-04-12T08:16:57.509Z,10.60
2018-04-12T08:19:24.411Z,10.77
2018-04-12T08:21:51.307Z,9.20
2018-04-12T08:24:18.238Z,9.87
2018-04-12T08:26:45.088Z,7.80
2018-04-12T08:29:12.006Z,6.50
2018-04-12T08:31:38.937Z,6.07
2018-04-12T08:34:05.853Z,5.50
2018-04-12T08:36:32.776Z,6.30
2018-04-12T08:38:59.618Z,6.00
2018-04-12T08:41:26.530Z,5.07
2018-04-12T08:43:54.130Z,6.37
2018-04-12T08:46:21.047Z,5.07
2018-04-12T08:48:47.892Z,5.50
2018-04-12T08:51:14.823Z,5.00
2018-04-12T08:53:41.665Z,4.97
2018-04-12T08:56:08.518Z,5.33
2018-04-12T08:58:36.176Z,4.67
2018-04-12T09:01:03.045Z,5.37
2018-04-12T09:03:29.962Z,4.83
2018-04-12T09:05:57.560Z,4.57
2018-04-12T09:08:24.475Z,4.73
2018-04-12T09:10:52.153Z,4.40
2018-04-12T09:13:19.000Z,4.60
2018-04-12T09:15:45.935Z,4.37
2018-04-12T09:18:13.531Z,4.80
2018-04-12T09:20:40.437Z,4.50
2018-04-12T09:23:08.021Z,5.63
2018-04-12T09:25:34.938Z,4.83
2018-04-12T09:28:02.533Z,4.63
2018-04-12T09:30:29.511Z,4.73
2018-04-12T09:32:56.374Z,4.90
2018-04-12T09:35:23.306Z,4.27
2018-04-12T09:37:50.229Z,4.80
2018-04-12T09:40:17.081Z,4.37
2018-04-12T09:42:43.995Z,5.27
2018-04-12T09:45:10.926Z,5.00
2018-04-12T09:47:37.769Z,5.10
2018-04-12T09:50:04.642Z,4.93
2018-04-12T09:52:31.551Z,4.93
2018-04-12T09:54:59.219Z,5.67
2018-04-12T09:57:26.818Z,5.20
2018-04-12T09:59:53.726Z,4.17
2018-04-12T10:02:26.717Z,4.37
2018-04-12T10:04:55.395Z,4.67
2018-04-12T10:07:22.386Z,4.37
2018-04-12T10:09:49.241Z,5.70
2018-04-12T10:12:16.157Z,4.60
2018-04-12T10:14:43.020Z,5.67
2018-04-12T10:17:09.933Z,4.70
2018-04-12T10:19:37.530Z,5.00
2018-04-12T10:22:04.460Z,4.27
2018-04-12T10:24:31.313Z,5.40
2018-04-12T10:26:58.230Z,9.10
2018-04-12T10:29:25.891Z,4.40
2018-04-12T10:31:52.880Z,4.30
2018-04-12T10:34:19.805Z,5.10
2018-04-12T10:36:46.727Z,4.70
2018-04-12T10:39:14.327Z,4.13
2018-04-12T10:41:41.342Z,4.43
2018-04-12T10:44:08.286Z,4.10
2018-04-12T10:46:35.987Z,4.50
2018-04-12T10:49:02.855Z,4.23
2018-04-12T10:51:29.842Z,4.20
2018-04-12T10:53:57.490Z,4.70
2018-04-12T10:56:24.465Z,4.20
2018-04-12T10:58:51.463Z,4.57
2018-04-12T11:01:18.392Z,4.10
2018-04-12T11:03:45.257Z,4.70
2018-04-12T11:06:12.177Z,4.67
2018-04-12T11:08:39.100Z,4.37
2018-04-12T11:11:06.014Z,4.20
2018-04-12T11:13:33.746Z,4.67
2018-04-12T11:16:00.597Z,5.50
2018-04-12T11:18:27.584Z,7.60
2018-04-12T11:20:55.168Z,6.93
2018-04-12T11:23:22.026Z,6.93
2018-04-12T11:25:48.980Z,7.63
2018-04-12T11:28:15.860Z,6.70
2018-04-12T11:30:42.785Z,7.10
2018-04-12T11:33:09.708Z,8.20
2018-04-12T11:35:36.559Z,8.90
2018-04-12T11:38:09.817Z,8.27
2018-04-12T11:40:37.360Z,8.70
2018-04-12T11:43:05.023Z,8.97
2018-04-12T11:45:32.626Z,9.97
2018-04-12T11:47:59.493Z,9.20
2018-04-12T11:50:26.413Z,9.20
2018-04-12T11:52:54.339Z,10.27
2018-04-12T11:55:21.274Z,9.00
2018-04-12T11:57:48.193Z,8.80
2018-04-12T12:00:15.043Z,9.70
2018-04-12T12:02:41.960Z,10.20
2018-04-12T12:05:08.813Z,11.00
2018-04-12T12:07:35.741Z,9.87
2018-04-12T12:10:16.300Z,9.10
2018-04-12T12:12:45.517Z,10.20
2018-04-12T12:15:13.970Z,10.73
2018-04-12T12:17:47.267Z,9.30
2018-04-12T12:20:31.380Z,8.43
2018-04-12T12:23:10.960Z,8.37
2018-04-12T12:25:47.219Z,9.60
2018-04-12T12:28:25.283Z,10.70
2018-04-12T12:30:54.606Z,9.97
2018-04-12T12:33:32.788Z,8.53
2018-04-12T12:36:12.191Z,7.70
2018-04-12T12:38:40.895Z,7.00
2018-04-12T12:41:11.805Z,7.43
2018-04-12T12:43:38.834Z,7.50
2018-04-12T12:46:06.600Z,9.00
2018-04-12T12:48:36.732Z,8.80
2018-04-12T12:51:04.185Z,9.07
2018-04-12T12:53:39.870Z,9.17
2018-04-12T12:56:09.165Z,9.73
2018-04-12T12:58:37.989Z,10.37
2018-04-12T13:01:07.557Z,8.93
2018-04-12T13:03:34.542Z,10.77
2018-04-12T13:06:01.509Z,10.50
2018-04-12T13:08:28.437Z,10.80
2018-04-12T13:10:55.397Z,9.80
2018-04-12T13:13:22.301Z,9.40
2018-04-12T13:15:49.227Z,8.70
2018-04-12T13:18:16.824Z,8.00
2018-04-12T13:20:43.778Z,7.77
2018-04-12T13:23:10.645Z,6.67
2018-04-12T13:25:37.516Z,8.17
2018-04-12T13:28:05.245Z,7.10
2018-04-12T13:30:32.173Z,7.20
2018-04-12T13:32:59.130Z,6.53
2018-04-12T13:35:25.997Z,6.63
2018-04-12T13:37:52.918Z,6.67
2018-04-12T13:40:19.782Z,6.17
2018-04-12T13:42:46.761Z,5.70
2018-04-12T13:45:13.649Z,5.40
2018-04-12T13:47:52.686Z,4.33
2018-04-12T13:50:20.073Z,4.73
2018-04-12T13:52:47.169Z,3.53
2018-04-12T13:55:14.099Z,3.80
2018-04-12T13:57:43.057Z,4.03
2018-04-12T14:00:09.939Z,3.83
2018-04-12T14:02:36.815Z,4.10
2018-04-12T14:05:03.844Z,4.00
2018-04-12T14:07:38.850Z,4.07
2018-04-12T14:10:07.144Z,4.10
2018-04-12T14:12:37.294Z,4.20
2018-04-12T14:15:04.438Z,3.83
2018-04-12T14:17:31.321Z,4.20
2018-04-12T14:19:58.246Z,3.23
2018-04-12T14:25:15.918Z,3.17
2018-04-12T14:27:44.131Z,3.30
2018-04-12T14:30:11.225Z,3.80
2018-04-12T14:32:38.071Z,3.37
2018-04-12T14:35:04.940Z,2.90
2018-04-12T14:37:32.611Z,1.83
2018-04-12T14:40:00.345Z,3.80
2018-04-12T14:42:27.264Z,7.27
2018-04-12T14:44:54.146Z,3.23
2018-04-12T14:47:21.038Z,2.50
2018-04-12T14:49:47.989Z,2.70
2018-04-12T14:52:14.905Z,2.53
2018-04-12T14:54:42.566Z,3.50
2018-04-12T14:57:10.237Z,3.70
2018-04-12T14:59:37.847Z,3.03
2018-04-12T15:02:04.792Z,4.60
2018-04-12T15:04:31.645Z,3.33
2018-04-12T15:06:58.525Z,3.53
2018-04-12T15:09:26.199Z,2.73
2018-04-12T15:11:53.177Z,3.30
2018-04-12T15:14:20.034Z,3.50
2018-04-12T15:16:46.957Z,4.60
2018-04-12T15:19:13.885Z,4.97
2018-04-12T15:21:40.733Z,5.70
2018-04-12T15:24:07.685Z,7.60
2018-04-12T15:26:42.396Z,7.13
2018-04-12T15:29:17.173Z,6.80
2018-04-12T15:31:46.549Z,6.83
2018-04-12T15:34:18.067Z,6.83
2018-04-12T15:36:47.154Z,7.40
2018-04-12T15:39:14.064Z,7.50
2018-04-12T15:41:48.337Z,7.10
2018-04-12T15:44:15.688Z,7.20
2018-04-12T15:46:43.351Z,7.20
2018-04-12T15:49:10.289Z,6.73
2018-04-12T15:51:37.280Z,7.80
2018-04-12T15:54:04.167Z,6.83
2018-04-12T15:56:31.162Z,7.13
2018-04-12T15:58:58.076Z,6.33
2018-04-12T16:01:25.052Z,6.23
2018-04-12T16:03:51.957Z,7.57
2018-04-12T16:06:18.804Z,6.10
2018-04-12T16:08:45.776Z,6.73
2018-04-12T16:11:13.369Z,6.73
2018-04-12T16:13:50.376Z,6.67
2018-04-12T16:16:17.361Z,6.90
2018-04-12T16:18:49.310Z,6.90
2018-04-12T16:21:17.023Z,8.70
2018-04-12T16:23:43.905Z,7.07
2018-04-12T16:26:10.860Z,6.13
2018-04-12T16:28:41.018Z,6.67
2018-04-12T16:31:07.936Z,7.20
2018-04-12T16:33:43.060Z,7.67
2018-04-12T16:36:10.213Z,8.37
2018-04-12T16:38:37.962Z,7.73
2018-04-12T16:41:06.260Z,8.67
2018-04-12T16:43:34.255Z,8.50
2018-04-12T16:46:02.385Z,9.63
2018-04-12T16:48:34.597Z,9.10
2018-04-12T16:51:09.355Z,9.60
2018-04-12T16:53:44.604Z,8.57
2018-04-12T16:56:19.312Z,8.00
2018-04-12T16:58:59.955Z,7.30
2018-04-12T17:01:27.875Z,7.57
2018-04-12T17:03:54.802Z,8.37
2018-04-12T17:06:21.721Z,8.20
2018-04-12T17:08:48.649Z,7.30
2018-04-12T17:11:15.598Z,8.13
2018-04-12T17:13:42.609Z,7.90
2018-04-12T17:16:09.604Z,6.90
2018-04-12T17:18:37.202Z,7.47
2018-04-12T17:21:04.137Z,7.57
2018-04-12T17:23:31.064Z,8.40
2018-04-12T17:25:58.661Z,7.87
2018-04-12T17:28:25.665Z,7.60
2018-04-12T17:30:52.546Z,8.30
2018-04-12T17:33:19.466Z,7.60
2018-04-12T17:35:47.144Z,7.70
2018-04-12T17:38:14.072Z,7.03
2018-04-12T17:40:41.733Z,8.10
2018-04-12T17:43:09.396Z,8.70
2018-04-12T17:45:37.129Z,7.33
2018-04-12T17:48:04.079Z,8.20
2018-04-12T17:50:30.925Z,7.63
2018-04-12T17:52:57.838Z,8.77
2018-04-12T17:55:24.699Z,6.73
2018-04-12T17:57:51.617Z,7.77
2018-04-12T18:00:18.538Z,7.43
2018-04-12T18:02:46.202Z,6.97
2018-04-12T18:05:13.784Z,6.80
2018-04-12T18:07:40.786Z,8.00
2018-04-12T18:10:07.732Z,8.70
2018-04-12T18:12:34.647Z,10.80
2018-04-12T18:15:01.579Z,19.83
2018-04-12T18:17:28.514Z,14.60
2018-04-12T18:19:55.451Z,11.87
2018-04-12T18:22:22.369Z,10.43
2018-04-12T18:24:49.274Z,7.73
2018-04-12T18:27:16.193Z,8.73
2018-04-12T18:29:43.130Z,8.33
2018-04-12T18:32:09.993Z,8.00
2018-04-12T18:34:36.865Z,7.90
2018-04-12T18:37:03.814Z,6.80
2018-04-12T18:39:30.734Z,6.93
2018-04-12T18:41:57.715Z,7.27
2018-04-12T18:44:24.576Z,15.17
2018-04-12T18:46:52.282Z,11.17
2018-04-12T18:49:19.142Z,8.40
2018-04-12T18:51:46.061Z,8.47
2018-04-12T18:54:12.916Z,8.23
2018-04-12T18:56:39.841Z,6.97
2018-04-12T18:59:06.761Z,8.57
2018-04-12T19:01:33.618Z,7.20
2018-04-12T19:04:01.314Z,8.00
2018-04-12T19:06:28.201Z,7.57
2018-04-12T19:08:55.121Z,8.67
2018-04-12T19:11:21.983Z,10.10
2018-04-12T19:13:48.921Z,8.70
2018-04-12T19:16:15.875Z,9.00
2018-04-12T19:18:42.727Z,9.00
2018-04-12T19:21:09.660Z,9.07
2018-04-12T19:23:36.581Z,9.90
2018-04-12T19:26:03.634Z,8.93
2018-04-12T19:28:30.544Z,9.77
2018-04-12T19:30:58.206Z,9.50
2018-04-12T19:33:25.867Z,9.90
2018-04-12T19:35:53.617Z,10.13
2018-04-12T19:38:20.860Z,9.17
2018-04-12T19:40:47.757Z,8.93
2018-04-12T19:43:16.753Z,10.27
2018-04-12T19:45:43.706Z,9.30
2018-04-12T19:48:11.745Z,9.33
2018-04-12T19:50:38.780Z,11.23
2018-04-12T19:53:05.640Z,9.53
2018-04-12T19:55:34.258Z,9.13
2018-04-12T19:58:01.195Z,9.47
2018-04-12T20:00:28.120Z,12.00
2018-04-12T20:02:55.781Z,11.93
2018-04-12T20:05:23.466Z,11.20
2018-04-12T20:07:50.427Z,11.40
2018-04-12T20:10:17.310Z,12.37
2018-04-12T20:12:44.237Z,12.90
2018-04-12T20:15:11.110Z,12.30
2018-04-12T20:17:38.097Z,13.33
2018-04-12T20:20:15.377Z,12.97
2018-04-12T20:22:43.847Z,12.67
2018-04-12T20:25:21.736Z,12.03
2018-04-12T20:27:49.918Z,11.87
2018-04-12T20:30:28.703Z,12.13
2018-04-12T20:33:05.979Z,13.00
2018-04-12T20:35:45.258Z,12.97
2018-04-12T20:38:12.874Z,14.60
2018-04-12T20:40:52.450Z,14.47
2018-04-12T20:43:20.001Z,13.50
2018-04-12T20:45:46.934Z,13.10
2018-04-12T20:48:24.567Z,14.07
2018-04-12T20:50:53.772Z,14.97
2018-04-12T20:53:30.705Z,16.23
2018-04-12T20:56:10.018Z,14.83
2018-04-12T20:58:48.554Z,14.27
2018-04-12T21:01:27.873Z,14.27
2018-04-12T21:04:06.729Z,13.70
2018-04-12T21:06:38.441Z,13.83
2018-04-12T21:09:05.785Z,13.70
2018-04-12T21:11:36.060Z,12.90
2018-04-12T21:14:03.161Z,11.90
2018-04-12T21:16:30.766Z,11.57
2018-04-12T21:18:57.631Z,11.30
2018-04-12T21:21:24.550Z,12.47
2018-04-12T21:23:51.485Z,12.10
2018-04-12T21:26:18.443Z,11.90
2018-04-12T21:28:45.379Z,12.50
2018-04-12T21:31:12.320Z,11.77
2018-04-12T21:33:39.174Z,13.20
2018-04-12T21:36:06.114Z,13.23
2018-04-12T21:38:33.074Z,13.27
2018-04-12T21:41:00.009Z,14.77
2018-04-12T21:43:26.965Z,14.87
2018-04-12T21:45:53.931Z,16.50
2018-04-12T21:48:20.939Z,18.93
2018-04-12T21:50:47.830Z,15.97
2018-04-12T21:53:14.774Z,18.00
2018-04-12T21:55:41.666Z,16.17
2018-04-12T21:58:08.595Z,16.47
2018-04-12T22:00:36.334Z,16.27
2018-04-12T22:03:03.314Z,16.03
2018-04-12T22:05:30.262Z,15.57
2018-04-12T22:07:57.867Z,17.00
2018-04-12T22:10:24.740Z,16.60
2018-04-12T22:12:51.657Z,16.57
2018-04-12T22:15:18.516Z,16.40
2018-04-12T22:17:45.491Z,17.37
2018-04-12T22:20:12.413Z,16.90
2018-04-12T22:22:39.267Z,14.90
2018-04-12T22:25:06.206Z,15.37
2018-04-12T22:27:33.137Z,16.00
2018-04-12T22:29:59.992Z,15.50
2018-04-12T22:32:26.906Z,17.63
2018-04-12T22:34:53.821Z,17.60
2018-04-12T22:37:20.797Z,16.53
2018-04-12T22:39:47.645Z,16.13
2018-04-12T22:42:14.641Z,16.80
2018-04-12T22:44:41.507Z,15.50
2018-04-12T22:47:08.516Z,16.00
2018-04-12T22:49:35.442Z,16.63
2018-04-12T22:52:02.321Z,14.90
2018-04-12T22:54:29.241Z,14.83
2018-04-12T22:56:56.177Z,14.20
2018-04-12T22:59:23.158Z,14.70
2018-04-12T23:01:50.023Z,15.00
2018-04-12T23:04:17.772Z,16.23
2018-04-12T23:06:45.383Z,16.07
2018-04-12T23:09:12.317Z,16.70
2018-04-12T23:11:39.185Z,15.10
2018-04-12T23:14:06.036Z,14.30
2018-04-12T23:16:32.969Z,15.17
2018-04-12T23:19:00.948Z,15.03
2018-04-12T23:21:28.972Z,14.90
2018-04-12T23:23:57.327Z,15.73
2018-04-12T23:26:25.389Z,13.40
2018-04-12T23:28:53.699Z,16.27
2018-04-12T23:31:21.219Z,12.90
2018-04-12T23:33:49.331Z,14.93
2018-04-12T23:36:19.101Z,14.50
2018-04-12T23:38:49.795Z,13.50
2018-04-12T23:41:17.952Z,15.07
2018-04-12T23:43:45.716Z,14.40
2018-04-12T23:46:13.892Z,15.70
2018-04-12T23:48:40.902Z,14.43
2018-04-12T23:51:07.819Z,14.97
2018-04-12T23:53:34.676Z,14.83
2018-04-12T23:56:01.600Z,14.30
2018-04-12T23:58:29.454Z,15.17
